Time;durP1;ratioP1;P1;durP2;ratioP2;P2;SDS_P1;SDS_P2;PMS_P1;PMS_P2;Temp;Humidity;BMP_temperature;BMP_pressure;BME280_temperature;BME280_humidity;BME280_pressure;Samples;Min_cycle;Max_cycle;Signal;HPM_P1;HPM_P2
2022/08/31 00:06:16;;;;;;;1.75;0.50;;;16.40;99.90;;;;;;5000149;28;20041;-73
2022/08/31 00:08:44;;;;;;;1.67;0.57;;;16.40;99.90;;;;;;5001028;28;20256;-73
2022/08/31 00:11:13;;;;;;;2.70;0.45;;;16.30;99.90;;;;;;4999485;28;20092;-73
2022/08/31 00:13:42;;;;;;;1.00;0.50;;;16.30;99.90;;;;;;4987806;28;20184;-73
2022/08/31 00:16:10;;;;;;;0.73;0.30;;;16.30;99.90;;;;;;4996427;28;20085;-73
2022/08/31 00:18:36;;;;;;;0.90;0.30;;;16.30;99.90;;;;;;5002086;28;20041;-73
2022/08/31 00:21:02;;;;;;;0.90;0.40;;;16.20;99.90;;;;;;5000278;28;20042;-73
2022/08/31 00:23:28;;;;;;;1.77;0.52;;;16.20;99.90;;;;;;5003269;28;20131;-73
2022/08/31 00:25:53;;;;;;;0.43;0.20;;;16.20;99.90;;;;;;4999371;28;20125;-73
2022/08/31 00:28:19;;;;;;;0.50;0.20;;;16.20;99.90;;;;;;4996869;28;20046;-73
2022/08/31 00:30:45;;;;;;;0.80;0.40;;;16.10;99.90;;;;;;4987432;28;20068;-73
2022/08/31 00:33:11;;;;;;;0.88;0.40;;;16.10;99.90;;;;;;4997372;28;20317;-74
2022/08/31 00:35:40;;;;;;;;;;;16.10;99.90;;;;;;5002346;28;20095;-73
2022/08/31 00:38:06;;;;;;;0.77;0.30;;;16.10;99.90;;;;;;5007826;28;19944;-73
2022/08/31 00:40:32;;;;;;;1.15;0.20;;;16.10;99.90;;;;;;4998688;28;20054;-73
2022/08/31 00:42:59;;;;;;;;;;;16.00;99.90;;;;;;5004312;28;20444;-73
2022/08/31 00:45:25;;;;;;;0.38;0.25;;;15.90;99.90;;;;;;5019408;28;19968;-73
2022/08/31 00:47:51;;;;;;;0.52;0.40;;;16.00;99.90;;;;;;4999580;28;20078;-73
2022/08/31 00:50:18;;;;;;;;;;;15.90;99.90;;;;;;5010503;28;20060;-73
2022/08/31 00:52:49;;;;;;;0.90;0.32;;;15.90;99.90;;;;;;5000158;28;19925;-73
2022/08/31 00:55:21;;;;;;;0.73;0.38;;;15.90;99.90;;;;;;4977804;28;20046;-73
2022/08/31 00:57:51;;;;;;;2.65;0.40;;;15.90;99.90;;;;;;5003753;28;20121;-73
2022/08/31 01:00:21;;;;;;;1.60;0.50;;;15.80;99.90;;;;;;5001387;28;20529;-73
2022/08/31 01:02:48;;;;;;;0.73;0.30;;;15.80;99.90;;;;;;4999839;28;20446;-73
2022/08/31 01:05:16;;;;;;;;;;;15.80;99.90;;;;;;5003765;28;20538;-73
2022/08/31 01:07:46;;;;;;;1.10;0.40;;;15.70;99.90;;;;;;5001213;28;19924;-74
2022/08/31 01:10:13;;;;;;;1.17;0.60;;;15.70;99.90;;;;;;5002664;28;20139;-73
2022/08/31 01:12:41;;;;;;;0.82;0.30;;;15.70;99.90;;;;;;4996253;28;20703;-76
2022/08/31 01:15:08;;;;;;;0.35;0.25;;;15.70;99.90;;;;;;4996596;28;20049;-76
2022/08/31 01:17:35;;;;;;;1.33;0.50;;;15.70;99.90;;;;;;4999543;28;20124;-76
2022/08/31 01:20:19;;;;;;;1.50;0.40;;;15.70;99.90;;;;;;5002195;28;20050;-76
2022/08/31 01:23:02;;;;;;;0.75;0.32;;;15.70;99.90;;;;;;5004528;28;20124;-76
2022/08/31 01:25:28;;;;;;;0.50;0.35;;;15.60;99.90;;;;;;4997641;28;20630;-76
2022/08/31 01:27:55;;;;;;;1.17;0.40;;;15.70;99.90;;;;;;4998824;28;20536;-76
2022/08/31 01:30:24;;;;;;;1.33;0.30;;;15.70;99.90;;;;;;4996002;28;20136;-76
2022/08/31 01:32:49;;;;;;;2.53;0.47;;;15.60;99.90;;;;;;5004043;28;20444;-76
2022/08/31 01:35:15;;;;;;;0.68;0.38;;;15.70;99.90;;;;;;5005101;28;20104;-76
2022/08/31 01:37:41;;;;;;;2.22;0.40;;;15.60;99.90;;;;;;5005407;28;20496;-76
2022/08/31 01:40:10;;;;;;;0.75;0.40;;;15.60;99.90;;;;;;5003212;28;20136;-76
2022/08/31 01:42:36;;;;;;;1.23;0.40;;;15.60;99.90;;;;;;4984423;28;20259;-75
2022/08/31 01:45:03;;;;;;;1.65;0.30;;;15.60;99.90;;;;;;4994620;28;20122;-75
2022/08/31 01:47:29;;;;;;;0.45;0.25;;;15.60;99.90;;;;;;4999317;28;20471;-75
2022/08/31 01:49:58;;;;;;;0.68;0.28;;;15.60;99.90;;;;;;5011547;28;20048;-75
2022/08/31 01:52:25;;;;;;;0.70;0.40;;;15.60;99.90;;;;;;4999671;28;20037;-75
2022/08/31 01:54:51;;;;;;;0.77;0.40;;;15.60;99.90;;;;;;4996834;28;20152;-73
2022/08/31 01:57:21;;;;;;;0.70;0.35;;;15.50;99.90;;;;;;4994684;28;20079;-75
2022/08/31 01:59:47;;;;;;;1.00;0.32;;;15.50;99.90;;;;;;5001183;28;20308;-75
2022/08/31 02:02:12;;;;;;;0.70;0.30;;;15.50;99.90;;;;;;4994722;28;20056;-75
2022/08/31 02:04:38;;;;;;;0.70;0.40;;;15.50;99.90;;;;;;5010969;28;20045;-75
2022/08/31 02:07:04;;;;;;;1.08;0.40;;;15.50;99.90;;;;;;5004897;28;20124;-75
2022/08/31 02:09:29;;;;;;;2.33;0.50;;;15.40;99.90;;;;;;5007868;28;20241;-75
2022/08/31 02:11:55;;;;;;;1.00;0.20;;;15.40;99.90;;;;;;5003994;28;20104;-75
2022/08/31 02:14:23;;;;;;;2.47;0.68;;;15.40;99.90;;;;;;5011942;28;20054;-75
2022/08/31 02:16:50;;;;;;;0.77;0.30;;;15.30;99.90;;;;;;4993296;28;20433;-75
2022/08/31 02:19:15;;;;;;;;;;;15.30;99.90;;;;;;5001753;28;20046;-75
2022/08/31 02:21:43;;;;;;;0.70;0.25;;;15.30;99.90;;;;;;5000590;28;20384;-75
2022/08/31 02:24:11;;;;;;;1.70;0.40;;;15.20;99.90;;;;;;5002397;28;20068;-75
2022/08/31 02:26:37;;;;;;;1.00;0.40;;;15.20;99.90;;;;;;5010091;28;20044;-75
2022/08/31 02:29:05;;;;;;;1.25;0.20;;;15.20;99.90;;;;;;5005923;28;20034;-75
2022/08/31 02:31:31;;;;;;;0.80;0.30;;;15.10;99.90;;;;;;4998245;28;20042;-75
2022/08/31 02:33:57;;;;;;;1.63;0.40;;;15.10;99.90;;;;;;5003582;28;20056;-75
2022/08/31 02:36:26;;;;;;;1.23;0.50;;;15.00;99.90;;;;;;5003054;28;20264;-75
2022/08/31 02:38:52;;;;;;;0.77;0.32;;;15.00;99.90;;;;;;4999459;28;20049;-75
2022/08/31 02:41:18;;;;;;;0.45;0.30;;;15.00;99.90;;;;;;4993452;28;20676;-75
2022/08/31 02:43:43;;;;;;;1.17;0.38;;;14.80;99.90;;;;;;4991079;28;20054;-75
2022/08/31 02:46:09;;;;;;;0.65;0.30;;;14.90;99.90;;;;;;5000270;28;20050;-75
2022/08/31 02:48:35;;;;;;;2.35;0.40;;;14.90;99.90;;;;;;4995438;28;20402;-75
2022/08/31 02:51:07;;;;;;;1.20;0.57;;;14.80;99.90;;;;;;5001700;28;20131;-75
2022/08/31 02:53:33;;;;;;;1.00;0.35;;;14.80;99.90;;;;;;4989640;28;20062;-75
2022/08/31 02:55:59;;;;;;;0.55;0.38;;;14.70;99.90;;;;;;4987547;28;20042;-75
2022/08/31 02:58:25;;;;;;;0.93;0.40;;;14.70;99.90;;;;;;4992024;28;20110;-75
2022/08/31 03:00:51;;;;;;;0.85;0.38;;;14.60;99.90;;;;;;4991785;28;20050;-75
2022/08/31 03:03:17;;;;;;;0.50;0.20;;;14.60;99.90;;;;;;4994912;28;20111;-75
2022/08/31 03:05:43;;;;;;;2.30;0.50;;;14.60;99.90;;;;;;4994034;28;20161;-75
2022/08/31 03:08:08;;;;;;;1.75;0.50;;;14.50;99.90;;;;;;4999245;28;20192;-75
2022/08/31 03:10:34;;;;;;;0.90;0.30;;;14.50;99.90;;;;;;4995848;28;21165;-75
2022/08/31 03:13:00;;;;;;;0.30;0.20;;;14.50;99.90;;;;;;4998808;28;20696;-75
2022/08/31 03:15:31;;;;;;;3.72;0.45;;;14.40;99.90;;;;;;4993464;28;20050;-75
2022/08/31 03:17:57;;;;;;;2.67;0.22;;;14.40;99.90;;;;;;4994906;28;20084;-75
2022/08/31 03:20:24;;;;;;;0.38;0.20;;;14.40;99.90;;;;;;4992994;28;20073;-75
2022/08/31 03:22:50;;;;;;;0.73;0.38;;;14.40;99.90;;;;;;4996435;28;20096;-75
2022/08/31 03:25:16;;;;;;;1.52;0.40;;;14.30;99.90;;;;;;4998169;28;20096;-75
2022/08/31 03:27:43;;;;;;;0.75;0.35;;;14.30;99.90;;;;;;4996856;28;20045;-75
2022/08/31 03:30:16;;;;;;;1.05;0.40;;;14.30;99.90;;;;;;4993881;28;20059;-75
2022/08/31 03:32:44;;;;;;;1.15;0.50;;;14.20;99.90;;;;;;4988078;28;20121;-75
2022/08/31 03:35:10;;;;;;;0.80;0.40;;;14.20;99.90;;;;;;4995911;28;20514;-75
2022/08/31 03:37:43;;;;;;;;;;;14.10;99.90;;;;;;4999514;28;20502;-75
2022/08/31 03:40:12;;;;;;;1.10;0.43;;;14.20;99.90;;;;;;4996421;28;19925;-75
2022/08/31 03:42:38;;;;;;;4.68;0.80;;;14.10;99.90;;;;;;5003672;28;20033;-75
2022/08/31 03:45:04;;;;;;;0.75;0.40;;;14.10;99.90;;;;;;5006557;28;20053;-75
2022/08/31 03:47:30;;;;;;;;;;;14.10;99.90;;;;;;4996057;28;20196;-75
2022/08/31 03:49:55;;;;;;;0.90;0.40;;;14.00;99.90;;;;;;5000416;28;20041;-75
2022/08/31 03:52:21;;;;;;;0.50;0.30;;;13.90;99.90;;;;;;4995730;28;20049;-75
2022/08/31 03:54:48;;;;;;;0.68;0.40;;;14.00;99.90;;;;;;4996030;28;20046;-75
2022/08/31 03:57:13;;;;;;;0.50;0.40;;;13.90;99.90;;;;;;4993370;28;20041;-75
2022/08/31 03:59:42;;;;;;;2.58;0.70;;;13.90;99.90;;;;;;5000659;28;20045;-75
2022/08/31 04:02:07;;;;;;;1.42;0.50;;;13.90;99.90;;;;;;4994860;28;20381;-75
2022/08/31 04:04:33;;;;;;;0.70;0.43;;;13.90;99.90;;;;;;4993812;28;20119;-75
2022/08/31 04:06:59;;;;;;;1.83;0.63;;;13.80;99.90;;;;;;5002236;28;20046;-75
2022/08/31 04:09:25;;;;;;;0.70;0.52;;;13.80;99.90;;;;;;5002392;28;20839;-75
2022/08/31 04:11:50;;;;;;;0.60;0.30;;;13.80;99.90;;;;;;4994035;28;20049;-75
2022/08/31 04:14:16;;;;;;;1.07;0.50;;;13.80;99.90;;;;;;4996304;28;20383;-75
2022/08/31 04:16:42;;;;;;;1.15;0.50;;;13.80;99.90;;;;;;4996380;28;20314;-75
2022/08/31 04:19:10;;;;;;;0.65;0.30;;;13.70;99.90;;;;;;4993102;28;20092;-75
2022/08/31 04:21:36;;;;;;;0.90;0.55;;;13.70;99.90;;;;;;5012840;28;20414;-75
2022/08/31 04:24:02;;;;;;;0.98;0.50;;;13.70;99.90;;;;;;5000490;28;20053;-75
2022/08/31 04:26:30;;;;;;;;;;;13.70;99.90;;;;;;4981027;28;20148;-75
2022/08/31 04:28:56;;;;;;;1.27;0.52;;;13.70;99.90;;;;;;4998705;28;19922;-75
2022/08/31 04:31:26;;;;;;;1.35;0.70;;;13.70;99.90;;;;;;4995721;28;20037;-75
2022/08/31 04:33:52;;;;;;;1.23;0.70;;;13.70;99.90;;;;;;5002079;28;20101;-75
2022/08/31 04:36:20;;;;;;;1.45;0.63;;;13.70;99.90;;;;;;4981037;28;20419;-75
2022/08/31 04:38:51;;;;;;;3.67;0.43;;;13.60;99.90;;;;;;5001736;28;20132;-75
2022/08/31 04:41:22;;;;;;;1.23;0.73;;;13.70;99.90;;;;;;5000942;28;20049;-75
2022/08/31 04:43:50;;;;;;;0.57;0.40;;;13.70;99.90;;;;;;4996908;28;20059;-75
2022/08/31 04:46:17;;;;;;;1.17;0.47;;;13.70;99.90;;;;;;4997999;28;20359;-75
2022/08/31 04:48:43;;;;;;;1.15;0.60;;;13.70;99.90;;;;;;4995055;28;21112;-75
2022/08/31 04:51:12;;;;;;;0.80;0.47;;;13.70;99.90;;;;;;4991147;28;20093;-75
2022/08/31 04:53:38;;;;;;;1.27;0.63;;;13.70;99.90;;;;;;4997364;28;20037;-75
2022/08/31 04:56:13;;;;;;;1.13;0.63;;;13.70;99.90;;;;;;4998856;28;20561;-75
2022/08/31 04:58:40;;;;;;;1.92;0.60;;;13.60;99.90;;;;;;4993511;28;20057;-75
2022/08/31 05:01:10;;;;;;;0.73;0.35;;;13.60;99.90;;;;;;4997271;28;20338;-75
2022/08/31 05:03:36;;;;;;;1.27;0.57;;;13.60;99.90;;;;;;5001837;28;20052;-75
2022/08/31 05:06:05;;;;;;;2.28;0.70;;;13.60;99.90;;;;;;4980414;28;20463;-75
2022/08/31 05:08:30;;;;;;;2.05;0.50;;;13.60;99.90;;;;;;4996873;28;20077;-75
2022/08/31 05:10:56;;;;;;;0.60;0.40;;;13.60;99.90;;;;;;5001135;28;20088;-75
2022/08/31 05:13:23;;;;;;;2.47;0.70;;;13.60;99.90;;;;;;4996893;28;20082;-75
2022/08/31 05:15:49;;;;;;;1.75;0.65;;;13.60;99.90;;;;;;4996186;28;20058;-77
2022/08/31 05:18:14;;;;;;;1.48;0.80;;;13.60;99.90;;;;;;5000574;28;20431;-75
2022/08/31 05:20:43;;;;;;;1.27;0.63;;;13.60;99.90;;;;;;5006596;22;20065;-76
2022/08/31 05:23:08;;;;;;;0.50;0.40;;;13.60;99.90;;;;;;4983769;28;20081;-76
2022/08/31 05:25:38;;;;;;;1.27;0.60;;;13.60;99.90;;;;;;4989572;28;20078;-76
2022/08/31 05:28:04;;;;;;;2.72;0.60;;;13.60;99.90;;;;;;4982323;28;20534;-76
2022/08/31 05:30:29;;;;;;;1.52;0.80;;;13.60;99.90;;;;;;4985125;28;20054;-75
2022/08/31 05:32:55;;;;;;;4.17;0.77;;;13.60;99.90;;;;;;4989148;28;20125;-76
2022/08/31 05:35:23;;;;;;;0.47;0.40;;;13.70;99.90;;;;;;4982019;28;20446;-77
2022/08/31 05:37:50;;;;;;;1.60;0.80;;;13.70;99.90;;;;;;4988982;28;20052;-76
2022/08/31 05:40:15;;;;;;;1.13;0.70;;;13.70;99.90;;;;;;4990699;28;20077;-76
2022/08/31 05:42:41;;;;;;;1.40;0.75;;;13.70;99.90;;;;;;4988192;28;20081;-76
2022/08/31 05:45:07;;;;;;;1.13;0.50;;;13.80;99.90;;;;;;4980969;28;20035;-79
2022/08/31 05:47:33;;;;;;;1.27;0.60;;;13.80;99.90;;;;;;4989933;28;20506;-75
2022/08/31 05:49:58;;;;;;;1.30;0.70;;;13.90;99.90;;;;;;4985575;28;20136;-75
2022/08/31 05:52:24;;;;;;;1.23;0.57;;;13.90;99.90;;;;;;4980715;28;20289;-76
2022/08/31 05:54:50;;;;;;;2.40;0.53;;;13.90;99.90;;;;;;4985622;28;20038;-76
2022/08/31 05:57:16;;;;;;;0.40;0.32;;;14.00;99.90;;;;;;4986603;28;20279;-81
2022/08/31 05:59:41;;;;;;;1.58;0.75;;;14.00;99.90;;;;;;4987860;28;20043;-76
2022/08/31 06:02:09;;;;;;;2.87;0.40;;;14.00;99.90;;;;;;4986432;28;20046;-76
2022/08/31 06:04:35;;;;;;;0.85;0.50;;;14.10;99.90;;;;;;4985914;28;20254;-76
2022/08/31 06:07:00;;;;;;;1.57;0.90;;;14.10;99.90;;;;;;4983598;28;20458;-76
2022/08/31 06:09:26;;;;;;;1.67;0.70;;;14.20;99.90;;;;;;4983138;28;20276;-76
2022/08/31 06:11:52;;;;;;;1.25;0.60;;;14.20;99.90;;;;;;4981235;28;20049;-76
2022/08/31 06:14:21;;;;;;;3.60;0.77;;;14.30;99.90;;;;;;4983014;28;20050;-76
2022/08/31 06:16:47;;;;;;;2.28;0.98;;;14.20;99.90;;;;;;4985345;28;20071;-76
2022/08/31 06:19:12;;;;;;;0.73;0.45;;;14.40;99.90;;;;;;4981119;28;20046;-76
2022/08/31 06:21:41;;;;;;;2.95;0.70;;;14.40;99.90;;;;;;4984928;28;20623;-77
2022/08/31 06:24:09;;;;;;;2.53;0.60;;;14.50;99.90;;;;;;4987708;28;20400;-76
2022/08/31 06:26:35;;;;;;;1.00;0.60;;;14.50;99.90;;;;;;4991713;28;20062;-76
2022/08/31 06:29:03;;;;;;;1.48;0.57;;;14.60;99.90;;;;;;4983248;28;20094;-76
2022/08/31 06:31:38;;;;;;;1.33;0.55;;;14.60;99.90;;;;;;4984872;28;20046;-76
2022/08/31 06:34:05;;;;;;;1.17;0.85;;;14.70;99.90;;;;;;4988680;28;20450;-77
2022/08/31 06:36:31;;;;;;;1.65;0.50;;;14.70;99.90;;;;;;4985709;28;20523;-77
2022/08/31 06:38:59;;;;;;;1.95;0.57;;;14.80;99.90;;;;;;4985226;28;20053;-77
2022/08/31 06:41:28;;;;;;;1.10;0.60;;;14.80;99.90;;;;;;4981525;28;20481;-77
2022/08/31 06:43:57;;;;;;;2.47;0.73;;;14.90;99.90;;;;;;4980345;28;20042;-76
2022/08/31 06:46:23;;;;;;;1.42;0.50;;;15.00;99.90;;;;;;4981738;28;20063;-77
2022/08/31 06:48:52;;;;;;;0.82;0.43;;;15.00;99.90;;;;;;4970091;28;20130;-76
2022/08/31 06:51:17;;;;;;;1.30;0.40;;;15.10;99.90;;;;;;4984937;28;20054;-77
2022/08/31 06:53:43;;;;;;;1.00;0.45;;;15.20;99.90;;;;;;4981216;28;20046;-77
2022/08/31 06:56:16;;;;;;;4.43;0.60;;;15.30;99.90;;;;;;4985397;28;20484;-77
2022/08/31 06:58:42;;;;;;;1.15;0.50;;;15.30;99.90;;;;;;4986537;28;20081;-76
2022/08/31 07:01:11;;;;;;;0.93;0.40;;;15.40;99.90;;;;;;4976535;28;20094;-76
2022/08/31 07:03:39;;;;;;;3.70;0.50;;;15.50;99.90;;;;;;4963263;28;20125;-76
2022/08/31 07:06:07;;;;;;;1.00;0.50;;;15.60;99.90;;;;;;4988680;28;20176;-76
2022/08/31 07:08:34;;;;;;;1.33;0.40;;;15.60;99.90;;;;;;4984651;28;20065;-76
2022/08/31 07:11:00;;;;;;;0.68;0.30;;;15.70;99.90;;;;;;4981997;28;20052;-77
2022/08/31 07:13:25;;;;;;;1.13;0.40;;;15.70;99.90;;;;;;4981326;28;20128;-76
2022/08/31 07:16:00;;;;;;;0.82;0.30;;;15.80;99.90;;;;;;4987788;28;20048;-77
2022/08/31 07:18:26;;;;;;;0.60;0.28;;;15.90;99.90;;;;;;4984141;28;20421;-76
2022/08/31 07:20:51;;;;;;;0.70;0.30;;;16.00;99.90;;;;;;4974415;28;20094;-77
2022/08/31 07:23:17;;;;;;;0.73;0.20;;;16.00;99.90;;;;;;4980836;28;20180;-76
2022/08/31 07:25:43;;;;;;;2.23;0.40;;;16.10;99.90;;;;;;4983806;28;20467;-77
2022/08/31 07:28:12;;;;;;;;;;;16.20;99.90;;;;;;4985206;28;20306;-77
2022/08/31 07:30:40;;;;;;;0.68;0.32;;;16.30;99.90;;;;;;4976944;28;19918;-77
2022/08/31 07:33:07;;;;;;;0.85;0.40;;;16.30;99.90;;;;;;4982352;28;20096;-76
2022/08/31 07:35:33;;;;;;;0.82;0.30;;;16.40;99.90;;;;;;4982777;28;20459;-77
2022/08/31 07:43:27;;;;;;;1.67;0.30;;;16.60;99.90;;;;;;4976871;28;20282;-76
2022/08/31 07:45:52;;;;;;;0.68;0.22;;;16.70;99.90;;;;;;4985623;28;20727;-76
2022/08/31 07:48:18;;;;;;;0.47;0.20;;;16.80;99.90;;;;;;4977893;28;20042;-77
2022/08/31 07:50:45;;;;;;;1.33;0.37;;;16.80;99.90;;;;;;4997452;28;20089;-76
2022/08/31 07:53:11;;;;;;;0.70;0.30;;;17.00;99.90;;;;;;4980402;28;20673;-77
2022/08/31 07:55:38;;;;;;;0.45;0.25;;;17.00;99.90;;;;;;4978324;28;20053;-77
2022/08/31 07:58:03;;;;;;;3.53;0.50;;;17.10;99.90;;;;;;4983655;28;20050;-77
2022/08/31 08:00:34;;;;;;;3.05;0.30;;;17.20;99.90;;;;;;4984993;28;20053;-77
2022/08/31 08:03:05;;;;;;;1.17;0.47;;;17.20;99.90;;;;;;4984816;28;20436;-77
2022/08/31 08:05:37;;;;;;;1.20;0.40;;;17.30;99.90;;;;;;4984193;28;20125;-77
2022/08/31 08:08:04;;;;;;;0.68;0.22;;;17.40;99.90;;;;;;4983515;28;20389;-77
2022/08/31 08:10:32;;;;;;;0.40;0.10;;;17.40;99.90;;;;;;4963987;28;20031;-77
2022/08/31 08:13:01;;;;;;;1.17;0.25;;;17.50;99.90;;;;;;4967592;28;20046;-77
2022/08/31 08:15:28;;;;;;;0.43;0.22;;;17.60;99.90;;;;;;4980045;28;20061;-76
2022/08/31 08:17:54;;;;;;;0.45;0.20;;;17.60;99.90;;;;;;4977152;28;20066;-76
2022/08/31 08:20:20;;;;;;;1.50;0.17;;;17.70;99.90;;;;;;4985173;28;20491;-76
2022/08/31 08:22:46;;;;;;;;;;;17.80;99.90;;;;;;4983743;28;20042;-76
2022/08/31 08:25:12;;;;;;;0.40;0.22;;;17.90;99.90;;;;;;4983241;28;19972;-77
2022/08/31 08:27:38;;;;;;;1.17;0.30;;;17.90;99.90;;;;;;4982035;28;20038;-77
2022/08/31 08:30:11;;;;;;;0.70;0.40;;;18.00;99.90;;;;;;4983612;28;20089;-76
2022/08/31 08:32:37;;;;;;;0.22;0.10;;;18.10;99.90;;;;;;4984455;28;20042;-77
2022/08/31 08:35:03;;;;;;;0.68;0.32;;;18.10;99.90;;;;;;4982784;28;20413;-77
2022/08/31 08:37:29;;;;;;;0.65;0.40;;;18.20;99.90;;;;;;4999839;28;20116;-77
2022/08/31 08:39:54;;;;;;;0.75;0.30;;;18.30;99.90;;;;;;4981395;28;20049;-77
2022/08/31 08:42:22;;;;;;;0.68;0.30;;;18.30;99.90;;;;;;4984508;28;20412;-77
2022/08/31 08:44:47;;;;;;;1.65;0.40;;;18.40;99.90;;;;;;4983690;28;20057;-77
2022/08/31 08:47:24;;;;;;;0.80;0.32;;;18.50;99.90;;;;;;4984339;28;20050;-77
2022/08/31 08:49:52;;;;;;;0.47;0.30;;;18.60;99.90;;;;;;4983912;28;20120;-76
2022/08/31 08:52:26;;;;;;;0.40;0.20;;;18.60;99.90;;;;;;4982312;28;20042;-76
2022/08/31 08:54:54;;;;;;;1.33;0.40;;;18.70;99.90;;;;;;4983362;28;20050;-77
2022/08/31 08:57:27;;;;;;;2.30;0.28;;;18.80;99.90;;;;;;4984401;28;20104;-77
2022/08/31 08:59:59;;;;;;;0.50;0.30;;;18.80;99.90;;;;;;4986504;28;20041;-77
2022/08/31 09:02:59;;;;;;;1.63;0.30;;;18.90;99.90;;;;;;4983898;28;20042;-77
2022/08/31 09:05:40;;;;;;;1.45;0.20;;;19.00;99.90;;;;;;4984008;28;20042;-77
2022/08/31 09:08:15;;;;;;;1.02;0.40;;;19.10;99.90;;;;;;4984142;28;20046;-77
2022/08/31 09:11:01;;;;;;;1.30;0.30;;;19.20;99.90;;;;;;4969822;28;20038;-76
2022/08/31 09:13:38;;;;;;;3.00;0.32;;;19.20;99.90;;;;;;4984002;28;20035;-76
2022/08/31 09:16:21;;;;;;;0.45;0.30;;;19.30;99.90;;;;;;4980417;28;20034;-77
2022/08/31 09:19:12;;;;;;;1.38;0.40;;;19.50;99.90;;;;;;4987126;28;20418;-77
2022/08/31 09:21:44;;;;;;;0.20;0.13;;;19.50;99.90;;;;;;4970473;28;20604;-76
2022/08/31 09:24:13;;;;;;;0.50;0.35;;;19.60;99.90;;;;;;4984142;28;20549;-76
2022/08/31 09:27:17;;;;;;;0.50;0.25;;;19.60;99.90;;;;;;4984958;28;20432;-77
2022/08/31 09:29:57;;;;;;;0.95;0.20;;;19.70;99.90;;;;;;4986220;28;20121;-77
2022/08/31 09:32:33;;;;;;;0.57;0.20;;;19.80;99.90;;;;;;4985430;28;20042;-77
2022/08/31 09:35:08;;;;;;;0.30;0.20;;;19.90;99.90;;;;;;4967614;28;20101;-77
2022/08/31 09:37:39;;;;;;;0.13;0.13;;;20.00;99.90;;;;;;4986712;28;20521;-77
2022/08/31 09:40:40;;;;;;;0.30;0.10;;;20.10;99.90;;;;;;4985338;28;20050;-76
2022/08/31 09:43:07;;;;;;;1.33;0.40;;;20.20;99.90;;;;;;4970801;28;20042;-76
2022/08/31 09:45:35;;;;;;;1.30;0.32;;;20.30;99.90;;;;;;4984292;28;20049;-77
2022/08/31 09:48:06;;;;;;;1.38;0.17;;;20.40;99.90;;;;;;4984389;28;20416;-77
2022/08/31 09:50:44;;;;;;;0.47;0.30;;;20.50;99.90;;;;;;4986954;28;20045;-77
2022/08/31 09:56:17;;;;;;;0.63;0.35;;;20.70;99.90;;;;;;4979642;28;20042;-77
2022/08/31 09:59:03;;;;;;;0.82;0.30;;;20.90;99.90;;;;;;4986568;28;20080;-76
2022/08/31 10:01:36;;;;;;;1.52;0.30;;;21.00;99.90;;;;;;4985535;28;20535;-76
2022/08/31 10:04:22;;;;;;;0.90;0.30;;;21.10;99.90;;;;;;4986168;28;20046;-76
2022/08/31 10:06:56;;;;;;;1.27;0.20;;;21.30;99.90;;;;;;4982004;28;20142;-77
2022/08/31 10:09:26;;;;;;;0.45;0.25;;;21.30;99.90;;;;;;4987327;28;20504;-76
2022/08/31 10:11:56;;;;;;;0.63;0.20;;;21.40;99.90;;;;;;4985388;28;20479;-77
2022/08/31 10:14:51;;;;;;;0.35;0.20;;;21.50;99.90;;;;;;4983562;28;20539;-75
2022/08/31 10:17:24;;;;;;;0.52;0.30;;;21.50;99.90;;;;;;4983273;28;20050;-75
2022/08/31 10:19:53;;;;;;;0.77;0.30;;;21.60;99.90;;;;;;4982706;28;20046;-75
2022/08/31 10:22:32;;;;;;;0.32;0.17;;;21.70;99.40;;;;;;4986277;28;20042;-75
2022/08/31 10:25:11;;;;;;;0.90;0.25;;;21.80;98.60;;;;;;4967479;28;20073;-74
2022/08/31 10:28:10;;;;;;;0.40;0.20;;;22.00;99.00;;;;;;4984249;28;20356;-75
2022/08/31 10:30:50;;;;;;;0.63;0.20;;;22.00;97.30;;;;;;4977737;28;20564;-76
2022/08/31 10:33:20;;;;;;;0.88;0.30;;;22.10;97.40;;;;;;4985472;28;20129;-74
2022/08/31 10:35:56;;;;;;;1.80;0.25;;;22.20;97.10;;;;;;4986747;28;20125;-74
2022/08/31 10:38:45;;;;;;;2.55;0.30;;;22.30;96.10;;;;;;4986854;28;20526;-74
2022/08/31 10:41:16;;;;;;;0.98;0.20;;;22.30;95.40;;;;;;4978786;28;20050;-75
2022/08/31 10:44:00;;;;;;;0.35;0.30;;;22.40;95.50;;;;;;4985653;28;20089;-75
2022/08/31 10:46:31;;;;;;;1.60;0.30;;;22.40;94.70;;;;;;4981859;28;20050;-75
2022/08/31 10:48:58;;;;;;;2.05;0.30;;;22.50;94.40;;;;;;4989796;28;20221;-75
2022/08/31 10:52:05;;;;;;;0.60;0.30;;;22.50;94.60;;;;;;4984763;28;20039;-75
2022/08/31 10:54:39;;;;;;;1.25;0.47;;;22.50;93.40;;;;;;4982165;28;20440;-75
2022/08/31 10:57:35;;;;;;;1.10;0.30;;;22.60;94.00;;;;;;4986329;28;20081;-74
2022/08/31 11:00:07;;;;;;;0.60;0.30;;;22.70;93.20;;;;;;4985777;28;20073;-74
2022/08/31 11:03:06;;;;;;;0.75;0.32;;;22.70;93.10;;;;;;4986871;28;20125;-75
2022/08/31 11:05:44;;;;;;;0.35;0.20;;;22.80;92.80;;;;;;4945189;28;20089;-75
2022/08/31 11:08:19;;;;;;;0.68;0.30;;;22.90;92.80;;;;;;4984173;28;20058;-74
2022/08/31 11:10:50;;;;;;;1.35;0.25;;;22.90;91.80;;;;;;4982805;28;20538;-74
2022/08/31 11:13:59;;;;;;;0.60;0.22;;;22.90;91.60;;;;;;4981868;28;20058;-74
2022/08/31 11:16:33;;;;;;;0.57;0.17;;;22.90;91.40;;;;;;4967636;28;20081;-74
2022/08/31 11:19:28;;;;;;;1.90;0.40;;;23.00;91.40;;;;;;4981108;28;20114;-74
2022/08/31 11:22:36;;;;;;;0.45;0.22;;;23.00;90.90;;;;;;5012831;23;20462;-75
2022/08/31 11:25:46;;;;;;;2.08;0.20;;;23.10;90.80;;;;;;4988882;28;20064;-74
2022/08/31 11:28:41;;;;;;;2.78;0.30;;;23.10;90.00;;;;;;5028364;28;20491;-74
2022/08/31 11:31:18;;;;;;;0.73;0.20;;;23.10;89.40;;;;;;5007749;28;20049;-75
2022/08/31 11:33:56;;;;;;;0.68;0.20;;;23.20;90.80;;;;;;5027224;28;20124;-75
2022/08/31 11:36:43;;;;;;;0.30;0.10;;;23.40;90.00;;;;;;5028524;28;20192;-75
2022/08/31 11:39:08;;;;;;;0.52;0.17;;;23.50;88.50;;;;;;5023915;28;20187;-75
2022/08/31 11:41:34;;;;;;;;;;;23.60;89.20;;;;;;5024083;28;20407;-74
2022/08/31 11:44:02;;;;;;;1.08;0.35;;;23.70;87.70;;;;;;5026195;28;20282;-75
2022/08/31 11:46:37;;;;;;;0.52;0.30;;;23.80;89.60;;;;;;5023064;28;20056;-76
2022/08/31 11:49:04;;;;;;;1.00;0.30;;;23.80;88.40;;;;;;5010149;28;20033;-74
2022/08/31 11:51:39;;;;;;;1.30;0.38;;;23.90;86.80;;;;;;5026411;28;20509;-75
2022/08/31 11:54:25;;;;;;;1.27;0.30;;;24.00;86.00;;;;;;5023921;28;20395;-75
2022/08/31 11:56:55;;;;;;;0.47;0.30;;;24.00;85.00;;;;;;5026769;28;20049;-75
2022/08/31 11:59:30;;;;;;;0.90;0.35;;;24.20;85.00;;;;;;5027831;28;20182;-74
2022/08/31 12:02:02;;;;;;;0.67;0.30;;;24.30;83.60;;;;;;5023748;28;20044;-75
2022/08/31 12:04:44;;;;;;;0.20;0.10;;;24.20;81.20;;;;;;5025646;28;20546;-75
2022/08/31 12:07:23;;;;;;;0.68;0.20;;;24.30;80.40;;;;;;5026160;28;20509;-75
2022/08/31 12:10:16;;;;;;;0.68;0.38;;;24.30;82.40;;;;;;5026911;28;20503;-75
2022/08/31 12:12:48;;;;;;;1.58;0.43;;;24.40;81.70;;;;;;5024802;28;20091;-74
2022/08/31 12:15:19;;;;;;;0.60;0.20;;;24.40;79.50;;;;;;5027544;28;20048;-75
2022/08/31 12:18:07;;;;;;;0.63;0.22;;;24.40;78.30;;;;;;5031075;28;20048;-74
2022/08/31 12:24:02;;;;;;;0.60;0.25;;;24.40;78.00;;;;;;5025620;28;20407;-74
2022/08/31 12:26:42;;;;;;;2.28;0.30;;;24.50;75.60;;;;;;5009603;28;20049;-74
2022/08/31 12:29:25;;;;;;;0.50;0.20;;;24.70;77.40;;;;;;5025353;28;20045;-73
2022/08/31 12:32:08;;;;;;;0.90;0.32;;;24.80;77.30;;;;;;5026622;28;20091;-73
2022/08/31 12:34:38;;;;;;;0.65;0.20;;;24.90;75.00;;;;;;5025573;28;20112;-74
2022/08/31 12:37:21;;;;;;;2.60;0.20;;;25.00;72.90;;;;;;5032233;28;20045;-72
2022/08/31 12:39:46;;;;;;;0.30;0.20;;;25.10;71.80;;;;;;5029069;28;20065;-73
2022/08/31 12:42:13;;;;;;;2.60;0.40;;;25.10;72.70;;;;;;5029389;28;20069;-73
2022/08/31 12:44:49;;;;;;;2.38;0.30;;;25.20;71.80;;;;;;5028832;28;20041;-73
2022/08/31 12:47:28;;;;;;;0.57;0.30;;;25.20;70.50;;;;;;5021609;28;20491;-73
2022/08/31 12:49:59;;;;;;;0.35;0.10;;;25.20;69.30;;;;;;5024582;28;20045;-73
2022/08/31 12:52:43;;;;;;;0.57;0.30;;;25.20;68.40;;;;;;5027991;28;20198;-73
2022/08/31 12:55:39;;;;;;;0.52;0.25;;;25.30;68.50;;;;;;5020144;28;20042;-72
2022/08/31 12:58:26;;;;;;;0.15;0.10;;;25.30;68.10;;;;;;5023410;28;20847;-73
2022/08/31 13:01:02;;;;;;;0.52;0.30;;;25.40;68.10;;;;;;5028657;28;20515;-73
2022/08/31 13:03:28;;;;;;;0.40;0.20;;;25.40;67.40;;;;;;5027662;28;20125;-73
2022/08/31 13:06:07;;;;;;;0.57;0.15;;;25.50;66.80;;;;;;5018306;28;20049;-73
2022/08/31 13:08:41;;;;;;;0.20;0.20;;;25.60;65.40;;;;;;5010946;28;20183;-73
2022/08/31 13:11:24;;;;;;;0.40;0.10;;;25.70;64.20;;;;;;5025830;28;20056;-73
2022/08/31 13:14:07;;;;;;;1.63;0.20;;;25.70;64.40;;;;;;5020836;28;20106;-74
2022/08/31 13:16:33;;;;;;;1.30;0.10;;;25.70;64.30;;;;;;5010895;28;20602;-73
2022/08/31 13:19:04;;;;;;;1.35;0.47;;;25.80;64.50;;;;;;5030958;28;20037;-73
2022/08/31 13:21:31;;;;;;;4.20;0.57;;;25.80;62.90;;;;;;5031725;28;20098;-73
2022/08/31 13:24:09;;;;;;;1.52;0.30;;;25.80;62.40;;;;;;5033671;28;20441;-73
2022/08/31 13:26:36;;;;;;;1.20;0.40;;;25.90;60.90;;;;;;5028541;28;20045;-73